Time;durP1;ratioP1;P1;durP2;ratioP2;P2;SDS_P1;SDS_P2;PMS_P1;PMS_P2;Temp;Humidity;BMP_temperature;BMP_pressure;BME280_temperature;BME280_humidity;BME280_pressure;Samples;Min_cycle;Max_cycle;Signal;HPM_P1;HPM_P2
2021/05/22 00:01:56;;;;;;;3.88;3.30;;;;;;;;;;5052364;28;20665;-76
2021/05/22 00:04:23;;;;;;;4.30;3.45;;;;;;;;;;5060746;28;20183;-74
2021/05/22 00:06:49;;;;;;;4.85;3.55;;;;;;;;;;5072455;28;20196;-76
2021/05/22 00:09:15;;;;;;;4.80;3.58;;;;;;;;;;5072374;28;20192;-75
2021/05/22 00:11:41;;;;;;;5.40;3.25;;;;;;;;;;5052406;28;20184;-76
2021/05/22 00:14:07;;;;;;;5.40;2.72;;;;;;;;;;5052111;28;20177;-79
2021/05/22 00:16:33;;;;;;;3.97;2.70;;;;;;;;;;5052470;28;20188;-77
2021/05/22 00:19:00;;;;;;;5.82;2.63;;;;;;;;;;5052153;28;20193;-76
2021/05/22 00:21:26;;;;;;;8.35;3.60;;;;;;;;;;5051080;28;20209;-74
2021/05/22 00:23:52;;;;;;;3.75;2.10;;;;;;;;;;5052196;28;20522;-74
2021/05/22 00:26:18;;;;;;;4.97;2.43;;;;;;;;;;5056747;28;20189;-77
2021/05/22 00:28:44;;;;;;;5.40;2.47;;;;;;;;;;5082722;28;20417;-76
2021/05/22 00:31:10;;;;;;;4.35;2.60;;;;;;;;;;5052065;28;20184;-75
2021/05/22 00:33:36;;;;;;;4.60;2.70;;;;;;;;;;5051796;28;20189;-77
2021/05/22 00:36:02;;;;;;;4.97;2.70;;;;;;;;;;5052029;28;20538;-75
2021/05/22 00:38:28;;;;;;;7.47;3.10;;;;;;;;;;5069927;28;20255;-76
2021/05/22 00:40:55;;;;;;;3.40;3.10;;;;;;;;;;5058290;28;20208;-75
2021/05/22 00:43:21;;;;;;;4.80;3.53;;;;;;;;;;5064196;28;20188;-75
2021/05/22 00:45:47;;;;;;;5.30;3.80;;;;;;;;;;5052954;28;20223;-75
2021/05/22 00:48:13;;;;;;;4.25;2.67;;;;;;;;;;5068674;28;20166;-76
2021/05/22 00:50:41;;;;;;;3.58;2.35;;;;;;;;;;5062249;28;20200;-76
2021/05/22 00:53:08;;;;;;;3.70;2.60;;;;;;;;;;5055243;28;20191;-76
2021/05/22 00:55:35;;;;;;;6.15;2.50;;;;;;;;;;5068362;28;20173;-76
2021/05/22 00:58:01;;;;;;;5.68;2.50;;;;;;;;;;5069721;28;20644;-75
2021/05/22 01:00:39;;;;;;;3.90;2.88;;;;;;;;;;5072407;28;20196;-76
2021/05/22 01:03:05;;;;;;;5.85;2.80;;;;;;;;;;5055721;28;20177;-77
2021/05/22 01:05:31;;;;;;;5.72;2.92;;;;;;;;;;5060139;28;20177;-76
2021/05/22 01:07:57;;;;;;;3.92;2.65;;;;;;;;;;5074925;28;20192;-76
2021/05/22 01:10:24;;;;;;;3.17;2.50;;;;;;;;;;5063603;28;20196;-75
2021/05/22 01:12:52;;;;;;;4.13;2.45;;;;;;;;;;5069944;28;20664;-75
2021/05/22 01:15:21;;;;;;;5.20;3.00;;;;;;;;;;5069720;28;20184;-76
2021/05/22 01:17:48;;;;;;;3.88;2.80;;;;;;;;;;5062821;28;20310;-76
2021/05/22 01:20:14;;;;;;;3.88;2.13;;;;;;;;;;5060550;28;20666;-76
2021/05/22 01:22:45;;;;;;;6.90;2.63;;;;;;;;;;5066566;28;20201;-75
2021/05/22 01:25:18;;;;;;;7.38;2.40;;;;;;;;;;5057796;28;20423;-76
2021/05/22 01:27:44;;;;;;;5.20;2.25;;;;;;;;;;5060941;28;20198;-77
2021/05/22 01:30:11;;;;;;;6.57;2.17;;;;;;;;;;5060139;28;20193;-80
2021/05/22 01:32:38;;;;;;;3.65;1.95;;;;;;;;;;5054952;28;20181;-77
2021/05/22 01:35:04;;;;;;;3.83;1.95;;;;;;;;;;5060767;28;20609;-76
2021/05/22 01:37:30;;;;;;;5.53;2.28;;;;;;;;;;5067730;28;20179;-75
2021/05/22 01:39:56;;;;;;;3.65;1.90;;;;;;;;;;5063177;28;20209;-76
2021/05/22 01:42:22;;;;;;;3.90;2.28;;;;;;;;;;5063193;28;20188;-75
2021/05/22 01:44:50;;;;;;;5.30;2.13;;;;;;;;;;5058795;28;20268;-76
2021/05/22 01:47:17;;;;;;;4.75;2.00;;;;;;;;;;5062466;28;20220;-74
2021/05/22 01:49:43;;;;;;;4.80;2.20;;;;;;;;;;5061939;28;20227;-76
2021/05/22 01:52:10;;;;;;;7.43;2.50;;;;;;;;;;5070808;28;20174;-76
2021/05/22 01:54:37;;;;;;;6.80;2.30;;;;;;;;;;5055475;28;20270;-76
2021/05/22 01:57:04;;;;;;;5.07;2.25;;;;;;;;;;5087812;28;20176;-75
2021/05/22 01:59:30;;;;;;;5.72;2.40;;;;;;;;;;5069507;28;20221;-75
2021/05/22 02:01:57;;;;;;;6.50;2.20;;;;;;;;;;5054579;28;20204;-75
2021/05/22 02:04:25;;;;;;;4.18;1.92;;;;;;;;;;5060257;28;20182;-76
2021/05/22 02:06:52;;;;;;;4.10;2.20;;;;;;;;;;5063345;28;20667;-75
2021/05/22 02:09:19;;;;;;;3.42;2.00;;;;;;;;;;5076929;28;20197;-74
2021/05/22 02:11:46;;;;;;;5.50;1.92;;;;;;;;;;5076866;28;20183;-75
2021/05/22 02:14:12;;;;;;;8.75;2.60;;;;;;;;;;5061525;28;20184;-77
2021/05/22 02:16:44;;;;;;;6.70;2.60;;;;;;;;;;5074523;28;20245;-75
2021/05/22 02:19:11;;;;;;;5.45;2.40;;;;;;;;;;5055708;28;20209;-74
2021/05/22 02:21:39;;;;;;;5.60;2.10;;;;;;;;;;5077623;28;20274;-79
2021/05/22 02:24:05;;;;;;;3.72;2.40;;;;;;;;;;5061868;28;20176;-77
2021/05/22 02:26:31;;;;;;;4.55;2.15;;;;;;;;;;5071265;28;20300;-75
2021/05/22 02:28:58;;;;;;;6.97;2.50;;;;;;;;;;5068440;28;20188;-76
2021/05/22 02:31:26;;;;;;;6.05;3.20;;;;;;;;;;5056247;28;20442;-75
2021/05/22 02:33:55;;;;;;;5.35;1.92;;;;;;;;;;5053742;28;20169;-76
2021/05/22 02:36:21;;;;;;;5.20;2.15;;;;;;;;;;5055567;28;20192;-75
2021/05/22 02:38:49;;;;;;;5.55;2.42;;;;;;;;;;5065705;28;20588;-74
2021/05/22 02:41:15;;;;;;;6.25;2.70;;;;;;;;;;5061891;28;20535;-76
2021/05/22 02:43:44;;;;;;;4.55;3.33;;;;;;;;;;5056879;28;20161;-75
2021/05/22 02:46:11;;;;;;;6.35;2.65;;;;;;;;;;5065699;28;20256;-75
2021/05/22 02:48:38;;;;;;;5.07;2.55;;;;;;;;;;5054618;28;20254;-75
2021/05/22 02:51:05;;;;;;;3.95;2.45;;;;;;;;;;5059560;28;20177;-77
2021/05/22 02:53:33;;;;;;;6.32;2.78;;;;;;;;;;5064297;28;20523;-77
2021/05/22 02:55:59;;;;;;;4.25;2.60;;;;;;;;;;5053757;28;20184;-74
2021/05/22 02:58:26;;;;;;;5.05;2.78;;;;;;;;;;5088361;28;20241;-77
2021/05/22 03:00:52;;;;;;;4.35;3.25;;;;;;;;;;5069584;28;20192;-78
2021/05/22 03:03:18;;;;;;;5.28;3.45;;;;;;;;;;5073297;28;20277;-74
2021/05/22 03:05:44;;;;;;;5.50;2.60;;;;;;;;;;5067864;28;20702;-77
2021/05/22 03:08:10;;;;;;;4.05;2.92;;;;;;;;;;5070422;28;20185;-79
2021/05/22 03:10:37;;;;;;;7.20;3.00;;;;;;;;;;5064063;28;20606;-74
2021/05/22 03:13:05;;;;;;;5.13;2.88;;;;;;;;;;5067801;28;20581;-73
2021/05/22 03:15:31;;;;;;;3.90;2.45;;;;;;;;;;5066741;28;20175;-75
2021/05/22 03:17:57;;;;;;;4.30;2.70;;;;;;;;;;5071030;28;20187;-76
2021/05/22 03:20:23;;;;;;;5.25;2.35;;;;;;;;;;5053988;28;20272;-73
2021/05/22 03:22:49;;;;;;;5.57;2.58;;;;;;;;;;5052950;28;20216;-77
2021/05/22 03:25:15;;;;;;;4.45;2.10;;;;;;;;;;5053886;28;20525;-73
2021/05/22 03:27:41;;;;;;;5.40;2.40;;;;;;;;;;5069586;28;20244;-75
2021/05/22 03:30:08;;;;;;;4.43;2.53;;;;;;;;;;5063672;28;20669;-78
2021/05/22 03:32:34;;;;;;;7.78;2.53;;;;;;;;;;5064318;28;20179;-76
2021/05/22 03:35:00;;;;;;;4.85;2.50;;;;;;;;;;5057758;28;20696;-75
2021/05/22 03:37:26;;;;;;;4.80;2.83;;;;;;;;;;5061782;28;20172;-75
2021/05/22 03:39:52;;;;;;;5.38;2.90;;;;;;;;;;5070587;28;20211;-77
2021/05/22 03:42:18;;;;;;;2.85;2.45;;;;;;;;;;5052859;28;20275;-78
2021/05/22 03:44:44;;;;;;;4.70;3.03;;;;;;;;;;5064119;28;20210;-77
2021/05/22 03:47:10;;;;;;;4.28;2.50;;;;;;;;;;5057662;28;20192;-74
2021/05/22 03:49:38;;;;;;;5.63;2.70;;;;;;;;;;5053444;28;20201;-76
2021/05/22 03:52:04;;;;;;;3.53;2.00;;;;;;;;;;5081642;28;20233;-78
2021/05/22 03:54:30;;;;;;;4.57;2.53;;;;;;;;;;5065788;28;20181;-75
2021/05/22 03:56:56;;;;;;;4.82;2.60;;;;;;;;;;5064322;28;20183;-75
2021/05/22 03:59:22;;;;;;;6.07;2.67;;;;;;;;;;5067996;28;20286;-75
2021/05/22 04:01:48;;;;;;;8.10;2.45;;;;;;;;;;5072769;28;20621;-75
2021/05/22 04:04:14;;;;;;;3.60;2.30;;;;;;;;;;5075709;28;20177;-74
2021/05/22 04:06:40;;;;;;;5.93;2.20;;;;;;;;;;5082684;28;20180;-78
2021/05/22 04:09:06;;;;;;;4.70;2.20;;;;;;;;;;5072917;28;20187;-75
2021/05/22 04:11:33;;;;;;;4.30;2.22;;;;;;;;;;5063653;28;20233;-74
2021/05/22 04:13:59;;;;;;;4.28;2.08;;;;;;;;;;5058152;28;20187;-77
2021/05/22 04:16:25;;;;;;;2.83;1.92;;;;;;;;;;5053134;28;20176;-76
2021/05/22 04:18:51;;;;;;;5.03;2.50;;;;;;;;;;5054297;28;20207;-76
2021/05/22 04:21:17;;;;;;;4.63;2.53;;;;;;;;;;5066709;28;20199;-76
2021/05/22 04:23:43;;;;;;;3.38;2.60;;;;;;;;;;5062944;28;20238;-75
2021/05/22 04:26:09;;;;;;;4.15;2.20;;;;;;;;;;5081215;28;20175;-74
2021/05/22 04:28:35;;;;;;;3.88;2.35;;;;;;;;;;5077180;28;20200;-77
2021/05/22 04:31:01;;;;;;;4.15;2.45;;;;;;;;;;5067120;28;20203;-76
2021/05/22 04:33:27;;;;;;;5.00;1.93;;;;;;;;;;5056150;28;20184;-76
2021/05/22 04:35:53;;;;;;;4.15;2.40;;;;;;;;;;5056233;28;20411;-76
2021/05/22 04:38:19;;;;;;;3.75;2.40;;;;;;;;;;5075455;28;20219;-76
2021/05/22 04:40:45;;;;;;;5.43;3.00;;;;;;;;;;5078094;28;20220;-77
2021/05/22 04:43:11;;;;;;;4.27;2.20;;;;;;;;;;5082925;28;20648;-76
2021/05/22 04:45:38;;;;;;;2.45;1.75;;;;;;;;;;5068063;28;20485;-78
2021/05/22 04:48:04;;;;;;;3.90;2.20;;;;;;;;;;5077783;28;20185;-77
2021/05/22 04:50:32;;;;;;;3.38;1.73;;;;;;;;;;5055916;28;20280;-77
2021/05/22 04:52:59;;;;;;;4.18;1.80;;;;;;;;;;5060878;28;20192;-75
2021/05/22 04:55:25;;;;;;;6.60;2.38;;;;;;;;;;5065363;28;20185;-75
2021/05/22 04:57:51;;;;;;;4.28;1.95;;;;;;;;;;5075800;28;20279;-76
2021/05/22 05:00:17;;;;;;;3.78;2.15;;;;;;;;;;5064710;28;20228;-77
2021/05/22 05:02:43;;;;;;;4.70;1.88;;;;;;;;;;5055791;28;20246;-76
2021/05/22 05:05:09;;;;;;;4.05;1.83;;;;;;;;;;5060881;28;20186;-76
2021/05/22 05:07:35;;;;;;;3.35;1.80;;;;;;;;;;5059459;28;20197;-77
2021/05/22 05:10:01;;;;;;;4.63;2.00;;;;;;;;;;5073881;28;20187;-75
2021/05/22 05:12:27;;;;;;;3.20;1.80;;;;;;;;;;5063352;28;20181;-73
2021/05/22 05:14:53;;;;;;;3.37;1.70;;;;;;;;;;5074035;28;20643;-76
2021/05/22 05:17:19;;;;;;;4.20;1.98;;;;;;;;;;5077148;28;20458;-75
2021/05/22 05:19:45;;;;;;;3.85;1.70;;;;;;;;;;5072017;28;20203;-76
2021/05/22 05:22:11;;;;;;;4.60;1.90;;;;;;;;;;5068854;28;20670;-76
2021/05/22 05:24:37;;;;;;;2.35;1.50;;;;;;;;;;5071132;28;20174;-74
2021/05/22 05:27:04;;;;;;;3.85;1.70;;;;;;;;;;5072127;28;20193;-74
2021/05/22 05:29:30;;;;;;;4.68;1.60;;;;;;;;;;5074817;28;20186;-76
2021/05/22 05:31:56;;;;;;;5.03;1.70;;;;;;;;;;5059299;28;20189;-73
2021/05/22 05:34:22;;;;;;;5.22;1.52;;;;;;;;;;5081373;28;20179;-74
2021/05/22 05:36:48;;;;;;;2.53;1.38;;;;;;;;;;5078909;28;20180;-76
2021/05/22 05:39:15;;;;;;;4.75;1.50;;;;;;;;;;5067071;28;20251;-76
2021/05/22 05:41:41;;;;;;;3.75;1.60;;;;;;;;;;5067936;28;20203;-77
2021/05/22 05:44:07;;;;;;;3.13;1.70;;;;;;;;;;5076710;28;20517;-76
2021/05/22 05:46:33;;;;;;;2.63;1.45;;;;;;;;;;5071156;28;20183;-75
2021/05/22 05:48:59;;;;;;;3.17;1.45;;;;;;;;;;5057421;28;20603;-75
2021/05/22 05:51:25;;;;;;;4.55;1.60;;;;;;;;;;5074840;28;20188;-77
2021/05/22 05:53:51;;;;;;;4.28;1.60;;;;;;;;;;5066441;28;20180;-75
2021/05/22 05:56:17;;;;;;;4.70;1.83;;;;;;;;;;5054465;28;20181;-76
2021/05/22 05:58:43;;;;;;;4.03;1.30;;;;;;;;;;5054593;28;20169;-76
2021/05/22 06:01:13;;;;;;;4.18;1.60;;;;;;;;;;5054257;28;20207;-74
2021/05/22 06:03:39;;;;;;;14.82;1.75;;;;;;;;;;5054720;28;20645;-74
2021/05/22 06:06:05;;;;;;;3.05;1.50;;;;;;;;;;5054760;28;20622;-76
2021/05/22 06:08:31;;;;;;;3.25;1.73;;;;;;;;;;5054575;28;20177;-74
2021/05/22 06:10:59;;;;;;;2.67;2.10;;;;;;;;;;5054606;28;20200;-75
2021/05/22 06:13:26;;;;;;;7.20;1.70;;;;;;;;;;5054345;28;20181;-76
2021/05/22 06:18:34;;;;;;;3.83;1.67;;;;;;;;;;5054490;28;20268;-74
2021/05/22 06:21:01;;;;;;;2.90;1.67;;;;;;;;;;5053836;28;20196;-74
2021/05/22 06:23:27;;;;;;;4.28;1.80;;;;;;;;;;5053967;28;20306;-75
2021/05/22 06:25:53;;;;;;;2.92;1.58;;;;;;;;;;5054084;28;20633;-73
2021/05/22 06:28:20;;;;;;;2.78;2.00;;;;;;;;;;5063490;28;20168;-74
2021/05/22 06:30:46;;;;;;;4.70;2.00;;;;;;;;;;5052885;28;20197;-75
2021/05/22 06:33:12;;;;;;;3.13;1.65;;;;;;;;;;5054057;28;20176;-74
2021/05/22 06:35:38;;;;;;;6.07;1.90;;;;;;;;;;5053796;28;20168;-74
2021/05/22 06:38:04;;;;;;;5.65;1.60;;;;;;;;;;5067660;28;20178;-76
2021/05/22 06:40:30;;;;;;;3.60;1.63;;;;;;;;;;5073573;28;20204;-76
2021/05/22 06:42:56;;;;;;;6.05;1.95;;;;;;;;;;5073262;28;20200;-77
2021/05/22 06:45:25;;;;;;;2.70;1.90;;;;;;;;;;5073581;28;20181;-77
2021/05/22 06:47:51;;;;;;;2.38;1.45;;;;;;;;;;5073515;28;20169;-75
2021/05/22 06:50:18;;;;;;;2.53;1.50;;;;;;;;;;5073140;28;20230;-76
2021/05/22 06:52:44;;;;;;;3.20;1.48;;;;;;;;;;5073440;28;20626;-76
2021/05/22 06:55:10;;;;;;;3.85;1.77;;;;;;;;;;5073580;28;20180;-73
2021/05/22 06:57:36;;;;;;;2.78;1.80;;;;;;;;;;5073468;28;20180;-73
2021/05/22 07:00:03;;;;;;;4.00;1.60;;;;;;;;;;5073514;28;20567;-76
2021/05/22 07:02:29;;;;;;;6.20;2.00;;;;;;;;;;5073065;28;20534;-76
2021/05/22 07:04:55;;;;;;;3.08;1.63;;;;;;;;;;5060241;28;20173;-74
2021/05/22 07:07:21;;;;;;;3.08;1.70;;;;;;;;;;5053041;28;20205;-75
2021/05/22 07:09:47;;;;;;;3.75;2.08;;;;;;;;;;5082493;28;20218;-77
2021/05/22 07:12:13;;;;;;;3.17;1.55;;;;;;;;;;5071827;28;20184;-76
2021/05/22 07:14:39;;;;;;;5.15;1.70;;;;;;;;;;5076799;28;20188;-75
2021/05/22 07:17:05;;;;;;;3.30;1.85;;;;;;;;;;5077815;28;20708;-76
2021/05/22 07:19:31;;;;;;;6.80;2.03;;;;;;;;;;5060190;28;20289;-77
2021/05/22 07:21:58;;;;;;;4.45;1.88;;;;;;;;;;5052758;28;20599;-73
2021/05/22 07:24:24;;;;;;;2.92;2.28;;;;;;;;;;5053043;28;20577;-78
2021/05/22 07:26:51;;;;;;;5.30;1.80;;;;;;;;;;5052991;28;20173;-75
2021/05/22 07:29:17;;;;;;;3.92;1.70;;;;;;;;;;5061458;28;20189;-76
2021/05/22 07:31:44;;;;;;;4.97;1.77;;;;;;;;;;5054913;28;20215;-74
2021/05/22 07:34:10;;;;;;;4.57;2.00;;;;;;;;;;5053161;28;20249;-75
2021/05/22 07:36:36;;;;;;;2.58;1.60;;;;;;;;;;5055971;28;20184;-75
2021/05/22 07:39:09;;;;;;;3.75;1.73;;;;;;;;;;5080627;28;20193;-73
2021/05/22 07:41:35;;;;;;;5.07;1.65;;;;;;;;;;5064687;28;20200;-76
2021/05/22 07:44:01;;;;;;;2.97;1.85;;;;;;;;;;5052701;28;20230;-74
2021/05/22 07:46:27;;;;;;;3.97;1.60;;;;;;;;;;5065888;28;20169;-74
2021/05/22 07:48:53;;;;;;;4.32;1.60;;;;;;;;;;5052420;28;20416;-73
2021/05/22 07:51:19;;;;;;;2.70;1.45;;;;;;;;;;5052644;28;20226;-73
2021/05/22 07:53:45;;;;;;;6.05;1.77;;;;;;;;;;5052473;28;20189;-75
2021/05/22 07:56:11;;;;;;;3.58;1.42;;;;;;;;;;5051219;28;20188;-74
2021/05/22 07:58:38;;;;;;;4.65;1.77;;;;;;;;;;5062559;28;20168;-74
2021/05/22 08:01:04;;;;;;;5.05;1.63;;;;;;;;;;5062575;28;20176;-74
2021/05/22 08:03:30;;;;;;;3.30;1.77;;;;;;;;;;5064275;28;20205;-71
2021/05/22 08:05:56;;;;;;;5.68;1.67;;;;;;;;;;5051220;28;20188;-75
2021/05/22 08:08:22;;;;;;;4.30;1.95;;;;;;;;;;5053954;28;20654;-76
2021/05/22 08:10:48;;;;;;;3.40;1.67;;;;;;;;;;5052660;28;20197;-73
2021/05/22 08:13:14;;;;;;;4.18;1.83;;;;;;;;;;5070602;28;20413;-75
2021/05/22 08:15:41;;;;;;;4.65;2.10;;;;;;;;;;5059404;28;20677;-75
2021/05/22 08:18:07;;;;;;;2.55;1.77;;;;;;;;;;5055172;28;20189;-73
2021/05/22 08:20:33;;;;;;;5.30;2.13;;;;;;;;;;5052648;28;20562;-73
2021/05/22 08:22:59;;;;;;;6.85;2.10;;;;;;;;;;5053349;28;20213;-75
2021/05/22 08:25:25;;;;;;;3.00;1.75;;;;;;;;;;5056451;28;20586;-76
2021/05/22 08:27:53;;;;;;;2.47;1.70;;;;;;;;;;5074828;28;20215;-75
2021/05/22 08:30:20;;;;;;;3.15;1.63;;;;;;;;;;5055040;28;20204;-74
2021/05/22 08:32:46;;;;;;;2.83;2.10;;;;;;;;;;5068315;28;20187;-77
2021/05/22 08:35:13;;;;;;;3.08;1.60;;;;;;;;;;5057020;28;20260;-74
2021/05/22 08:37:40;;;;;;;4.57;2.17;;;;;;;;;;5068607;28;20179;-71
2021/05/22 08:40:06;;;;;;;2.83;1.60;;;;;;;;;;5057938;28;20226;-74
2021/05/22 08:42:32;;;;;;;3.85;2.00;;;;;;;;;;5062501;28;20191;-73
2021/05/22 08:45:04;;;;;;;2.97;2.22;;;;;;;;;;5057304;28;20666;-73
2021/05/22 08:47:30;;;;;;;3.83;2.10;;;;;;;;;;5060404;28;20167;-75
2021/05/22 08:49:57;;;;;;;3.10;2.08;;;;;;;;;;5060641;28;20228;-74
2021/05/22 08:52:23;;;;;;;4.57;1.80;;;;;;;;;;5057296;28;20886;-76
2021/05/22 08:54:49;;;;;;;6.47;2.20;;;;;;;;;;5068346;28;20545;-75
2021/05/22 08:57:16;;;;;;;3.97;2.28;;;;;;;;;;5072861;28;20676;-76
2021/05/22 08:59:44;;;;;;;4.50;2.30;;;;;;;;;;5055766;28;20209;-74
2021/05/22 09:02:11;;;;;;;3.58;2.40;;;;;;;;;;5051883;28;20208;-77
2021/05/22 09:04:56;;;;;;;4.15;2.50;;;;;;;;;;5054417;28;20180;-73
2021/05/22 09:07:23;;;;;;;5.50;2.80;;;;;;;;;;5052981;28;20199;-72
2021/05/22 09:09:49;;;;;;;4.10;2.35;;;;;;;;;;5076632;28;20197;-73
2021/05/22 09:12:18;;;;;;;3.00;2.30;;;;;;;;;;5051572;28;20173;-74
2021/05/22 09:14:48;;;;;;;4.15;2.67;;;;;;;;;;5064662;28;20419;-74
2021/05/22 09:17:15;;;;;;;5.22;2.67;;;;;;;;;;5052948;28;20196;-76
2021/05/22 09:19:41;;;;;;;3.70;3.25;;;;;;;;;;5051447;28;20561;-72
2021/05/22 09:22:13;;;;;;;6.63;2.95;;;;;;;;;;5075527;28;20228;-73
2021/05/22 09:25:14;;;;;;;4.07;2.70;;;;;;;;;;5051398;28;20533;-76
2021/05/22 09:27:41;;;;;;;4.00;2.60;;;;;;;;;;5036610;28;20296;-73
2021/05/22 09:30:12;;;;;;;6.13;3.78;;;;;;;;;;5048012;28;20222;-74
2021/05/22 09:32:39;;;;;;;5.13;3.08;;;;;;;;;;5068226;28;20200;-74
2021/05/22 09:35:06;;;;;;;5.75;3.40;;;;;;;;;;5050989;28;20240;-76
2021/05/22 09:37:39;;;;;;;6.13;2.88;;;;;;;;;;5073026;28;20184;-71
2021/05/22 09:40:06;;;;;;;3.92;2.95;;;;;;;;;;5071188;28;20219;-74
2021/05/22 09:42:32;;;;;;;5.72;3.17;;;;;;;;;;5062074;28;20612;-75
2021/05/22 09:45:01;;;;;;;4.78;3.00;;;;;;;;;;5050934;28;20193;-74
2021/05/22 09:47:27;;;;;;;5.22;3.20;;;;;;;;;;5058002;28;20177;-73
2021/05/22 09:49:53;;;;;;;5.03;3.20;;;;;;;;;;5050728;28;20209;-76
2021/05/22 09:52:19;;;;;;;5.88;3.00;;;;;;;;;;5064508;28;20197;-71
2021/05/22 09:54:52;;;;;;;6.70;3.42;;;;;;;;;;5062981;28;20214;-74
2021/05/22 09:57:42;;;;;;;4.72;3.05;;;;;;;;;;5088931;28;20182;-72
2021/05/22 10:00:08;;;;;;;3.15;2.85;;;;;;;;;;5051534;28;20200;-70
2021/05/22 10:02:41;;;;;;;3.78;2.67;;;;;;;;;;5060787;28;20258;-74
2021/05/22 10:05:18;;;;;;;3.50;2.85;;;;;;;;;;5050650;28;20180;-74
2021/05/22 10:07:45;;;;;;;3.60;2.80;;;;;;;;;;5055089;28;20604;-77
2021/05/22 10:10:11;;;;;;;3.40;3.10;;;;;;;;;;5050604;28;20200;-79
2021/05/22 10:12:39;;;;;;;5.93;2.90;;;;;;;;;;5079089;28;20231;-76
2021/05/22 10:15:05;;;;;;;4.65;2.92;;;;;;;;;;5050438;28;20280;-73
2021/05/22 10:17:32;;;;;;;3.13;2.80;;;;;;;;;;5076621;28;20184;-74
2021/05/22 10:19:58;;;;;;;4.20;2.78;;;;;;;;;;5076089;28;20700;-72
2021/05/22 10:22:24;;;;;;;5.07;2.75;;;;;;;;;;5077261;28;20204;-72
2021/05/22 10:24:52;;;;;;;3.42;2.53;;;;;;;;;;5058102;28;20254;-77
2021/05/22 10:27:20;;;;;;;3.42;2.75;;;;;;;;;;5056764;28;20637;-77
2021/05/22 10:29:46;;;;;;;6.75;2.88;;;;;;;;;;5057445;28;20201;-76
2021/05/22 10:32:23;;;;;;;5.50;2.67;;;;;;;;;;5050186;28;20267;-74
2021/05/22 10:34:49;;;;;;;3.58;2.47;;;;;;;;;;5050127;28;20181;-74
2021/05/22 10:37:34;;;;;;;3.53;2.70;;;;;;;;;;5057218;28;20676;-75
2021/05/22 10:40:00;;;;;;;4.38;2.90;;;;;;;;;;5066530;28;20207;-74
2021/05/22 10:42:26;;;;;;;3.80;2.40;;;;;;;;;;5050196;28;20215;-75
2021/05/22 10:44:52;;;;;;;3.40;2.83;;;;;;;;;;5048417;28;20569;-73
2021/05/22 10:47:19;;;;;;;3.92;2.67;;;;;;;;;;5050326;28;20431;-73
2021/05/22 10:49:51;;;;;;;4.82;2.70;;;;;;;;;;5049855;28;20205;-75
2021/05/22 10:52:27;;;;;;;5.65;3.13;;;;;;;;;;5051235;28;20593;-74
2021/05/22 10:55:00;;;;;;;4.65;2.97;;;;;;;;;;5058829;28;20206;-80
2021/05/22 10:57:27;;;;;;;3.72;3.42;;;;;;;;;;5056716;28;20215;-75
2021/05/22 11:00:12;;;;;;;5.15;2.80;;;;;;;;;;5061691;28;20232;-78
2021/05/22 11:02:39;;;;;;;5.80;3.63;;;;;;;;;;5049812;28;20189;-76
2021/05/22 11:05:32;;;;;;;3.78;3.22;;;;;;;;;;5049481;28;20185;-72
2021/05/22 11:08:04;;;;;;;3.40;2.75;;;;;;;;;;5033413;28;20200;-77
2021/05/22 11:10:36;;;;;;;3.60;2.80;;;;;;;;;;5049343;28;20226;-76
2021/05/22 11:13:03;;;;;;;5.53;3.10;;;;;;;;;;5049435;28;20184;-77
2021/05/22 11:15:38;;;;;;;4.00;3.55;;;;;;;;;;5053844;28;20704;-78
2021/05/22 11:18:05;;;;;;;6.10;3.17;;;;;;;;;;5049386;28;20172;-75
2021/05/22 11:20:31;;;;;;;3.22;2.83;;;;;;;;;;5049339;28;20204;-77
2021/05/22 11:23:01;;;;;;;5.05;3.50;;;;;;;;;;5049283;28;20201;-76
2021/05/22 11:25:29;;;;;;;3.60;3.00;;;;;;;;;;5049393;28;20188;-78
2021/05/22 11:28:01;;;;;;;4.85;3.42;;;;;;;;;;5054755;28;20295;-75
2021/05/22 11:30:43;;;;;;;6.68;3.03;;;;;;;;;;5049835;28;20311;-77
2021/05/22 11:33:10;;;;;;;4.50;3.30;;;;;;;;;;5059900;28;20215;-76
2021/05/22 11:35:37;;;;;;;4.32;3.70;;;;;;;;;;5065796;28;20263;-74
2021/05/22 11:38:12;;;;;;;3.78;2.85;;;;;;;;;;5059999;28;20601;-74
2021/05/22 11:40:38;;;;;;;4.15;3.42;;;;;;;;;;5051559;28;20203;-74
2021/05/22 11:43:20;;;;;;;3.80;3.30;;;;;;;;;;5049312;28;20570;-72
2021/05/22 11:45:47;;;;;;;5.65;3.60;;;;;;;;;;5049078;28;20607;-74
2021/05/22 11:48:25;;;;;;;6.30;3.65;;;;;;;;;;5048963;28;20181;-75
2021/05/22 11:50:52;;;;;;;4.13;3.70;;;;;;;;;;5048696;28;20566;-75
2021/05/22 11:53:19;;;;;;;4.22;3.40;;;;;;;;;;5056355;28;20176;-77
2021/05/22 11:55:45;;;;;;;4.25;3.80;;;;;;;;;;5066901;28;20184;-71
2021/05/22 11:58:12;;;;;;;3.83;3.53;;;;;;;;;;5068920;28;20576;-72
2021/05/22 12:00:39;;;;;;;5.60;4.18;;;;;;;;;;5068929;28;20206;-77
2021/05/22 12:03:06;;;;;;;4.10;3.80;;;;;;;;;;5068834;28;20204;-74
2021/05/22 12:05:39;;;;;;;3.90;3.60;;;;;;;;;;5050641;28;20173;-74
2021/05/22 12:08:05;;;;;;;6.00;3.60;;;;;;;;;;5049011;28;20194;-75
2021/05/22 12:10:31;;;;;;;6.30;4.00;;;;;;;;;;5048429;28;20192;-77
2021/05/22 12:13:03;;;;;;;7.05;3.78;;;;;;;;;;5048708;28;20177;-76
2021/05/22 12:15:30;;;;;;;5.15;3.85;;;;;;;;;;5048605;28;20550;-76
2021/05/22 12:18:03;;;;;;;4.70;3.78;;;;;;;;;;5048457;28;20756;-73
2021/05/22 12:20:30;;;;;;;3.42;3.13;;;;;;;;;;5048728;28;20254;-78
2021/05/22 12:22:56;;;;;;;4.05;3.42;;;;;;;;;;5048371;28;20298;-75
2021/05/22 12:25:22;;;;;;;3.40;3.05;;;;;;;;;;5048654;28;20177;-76
2021/05/22 12:27:48;;;;;;;6.07;3.47;;;;;;;;;;5051489;28;20180;-76
2021/05/22 12:30:15;;;;;;;3.85;3.42;;;;;;;;;;5052703;28;20203;-78
2021/05/22 12:32:41;;;;;;;4.90;3.50;;;;;;;;;;5051689;28;20189;-76
2021/05/22 12:35:09;;;;;;;3.40;3.10;;;;;;;;;;5060573;28;20181;-75
2021/05/22 12:37:35;;;;;;;5.07;3.40;;;;;;;;;;5066623;28;20190;-73
2021/05/22 12:40:08;;;;;;;4.07;3.38;;;;;;;;;;5068342;28;20879;-74
2021/05/22 12:42:35;;;;;;;4.70;4.30;;;;;;;;;;5068472;28;20236;-72
2021/05/22 12:45:07;;;;;;;7.90;4.30;;;;;;;;;;5068261;28;20172;-72
2021/05/22 12:47:38;;;;;;;3.80;3.50;;;;;;;;;;5068503;28;20846;-74
2021/05/22 12:50:06;;;;;;;4.38;4.07;;;;;;;;;;5072052;28;20192;-73
2021/05/22 12:52:47;;;;;;;4.75;4.30;;;;;;;;;;5083915;28;20179;-74
2021/05/22 12:55:19;;;;;;;5.57;5.07;;;;;;;;;;5060311;28;20173;-74
2021/05/22 12:57:45;;;;;;;4.65;4.35;;;;;;;;;;5068367;28;20557;-74
2021/05/22 13:00:13;;;;;;;5.13;4.72;;;;;;;;;;5057083;28;20249;-73
2021/05/22 13:02:47;;;;;;;4.85;4.45;;;;;;;;;;5070012;28;20208;-74
2021/05/22 13:05:13;;;;;;;5.03;4.55;;;;;;;;;;5055079;28;20837;-73
2021/05/22 13:07:42;;;;;;;5.43;5.03;;;;;;;;;;5060427;28;20193;-79
2021/05/22 13:10:09;;;;;;;6.07;5.18;;;;;;;;;;5076966;28;20955;-74
2021/05/22 13:12:35;;;;;;;6.00;5.50;;;;;;;;;;5051684;28;20181;-76
2021/05/22 13:15:03;;;;;;;5.45;4.90;;;;;;;;;;5063101;28;20260;-78
2021/05/22 13:17:48;;;;;;;5.70;5.30;;;;;;;;;;5051401;28;20187;-75
2021/05/22 13:20:38;;;;;;;6.40;5.80;;;;;;;;;;5059723;28;20227;-75
2021/05/22 13:23:07;;;;;;;8.20;7.50;;;;;;;;;;5043857;28;20225;-74
2021/05/22 13:25:33;;;;;;;5.65;5.15;;;;;;;;;;5059204;28;20182;-76
2021/05/22 13:28:04;;;;;;;5.80;5.38;;;;;;;;;;5052554;28;20181;-76
2021/05/22 13:30:32;;;;;;;6.18;5.68;;;;;;;;;;5057541;28;20612;-75
2021/05/22 13:32:58;;;;;;;6.20;5.60;;;;;;;;;;5051014;28;20181;-76
2021/05/22 13:35:26;;;;;;;6.15;5.55;;;;;;;;;;5058541;28;20681;-74
2021/05/22 13:37:53;;;;;;;6.13;5.50;;;;;;;;;;5064896;28;20193;-77
2021/05/22 13:40:19;;;;;;;5.60;5.10;;;;;;;;;;5053282;28;20632;-75
2021/05/22 13:42:46;;;;;;;6.32;5.75;;;;;;;;;;5064218;28;20213;-73
2021/05/22 13:45:12;;;;;;;6.60;5.22;;;;;;;;;;5049842;28;20200;-77
2021/05/22 13:47:38;;;;;;;5.90;5.35;;;;;;;;;;5057768;28;20557;-76
2021/05/22 13:50:05;;;;;;;6.28;5.50;;;;;;;;;;5051102;28;20197;-74
2021/05/22 13:52:31;;;;;;;6.10;5.70;;;;;;;;;;5056253;28;20583;-73
2021/05/22 13:54:57;;;;;;;5.90;5.40;;;;;;;;;;5067501;28;20199;-73
2021/05/22 13:57:23;;;;;;;5.55;5.15;;;;;;;;;;5064854;28;20518;-73
2021/05/22 13:59:49;;;;;;;5.90;5.50;;;;;;;;;;5049448;28;20338;-75
2021/05/22 14:02:15;;;;;;;5.53;5.18;;;;;;;;;;5053043;28;20475;-73
2021/05/22 14:04:41;;;;;;;5.70;5.30;;;;;;;;;;5050755;28;20593;-75
2021/05/22 14:07:07;;;;;;;5.23;4.83;;;;;;;;;;5049948;28;20436;-78
2021/05/22 14:09:33;;;;;;;5.27;4.97;;;;;;;;;;5050448;28;20427;-74
2021/05/22 14:11:59;;;;;;;5.40;4.80;;;;;;;;;;5055744;28;20597;-75
2021/05/22 14:14:25;;;;;;;4.80;4.50;;;;;;;;;;5063969;28;20272;-74
2021/05/22 14:16:51;;;;;;;5.43;4.70;;;;;;;;;;5070931;28;20656;-74
2021/05/22 14:19:17;;;;;;;5.20;4.90;;;;;;;;;;5057387;28;20205;-75
2021/05/22 14:21:43;;;;;;;5.72;5.03;;;;;;;;;;5052293;28;20283;-76
2021/05/22 14:24:10;;;;;;;5.35;4.95;;;;;;;;;;5057128;28;20266;-71
2021/05/22 14:26:36;;;;;;;4.93;4.63;;;;;;;;;;5054071;28;20195;-75
2021/05/22 14:29:02;;;;;;;7.97;5.82;;;;;;;;;;5051664;28;20197;-76
2021/05/22 14:31:28;;;;;;;5.72;5.22;;;;;;;;;;5054376;28;20184;-75
2021/05/22 14:33:54;;;;;;;5.10;4.70;;;;;;;;;;5049950;28;20264;-76
2021/05/22 14:36:20;;;;;;;5.10;4.50;;;;;;;;;;5064965;28;20184;-77
2021/05/22 14:38:47;;;;;;;5.00;4.60;;;;;;;;;;5069446;28;20227;-77
2021/05/22 14:41:13;;;;;;;4.40;4.10;;;;;;;;;;5057104;28;20457;-75
2021/05/22 14:43:39;;;;;;;4.20;3.90;;;;;;;;;;5056029;28;20177;-74
2021/05/22 14:46:06;;;;;;;4.88;4.47;;;;;;;;;;5055471;28;20184;-75
2021/05/22 14:48:32;;;;;;;4.35;4.05;;;;;;;;;;5056106;28;20173;-77